createdAt,value
2022-08-17T00:01:27.150Z,29.50
2022-08-17T00:03:54.125Z,29.58
2022-08-17T00:06:27.963Z,35.17
2022-08-17T00:08:57.225Z,30.63
2022-08-17T00:11:30.739Z,34.80
2022-08-17T00:14:18.734Z,34.13
2022-08-17T00:16:56.579Z,30.70
2022-08-17T00:19:25.548Z,30.02
2022-08-17T00:21:59.939Z,32.40
2022-08-17T00:27:07.930Z,30.55
2022-08-17T00:29:34.276Z,31.52
2022-08-17T00:32:01.779Z,33.17
2022-08-17T00:34:48.110Z,32.00
2022-08-17T00:37:14.474Z,32.25
2022-08-17T00:39:40.894Z,31.10
2022-08-17T00:42:19.306Z,35.63
2022-08-17T00:44:45.863Z,34.17
2022-08-17T00:47:12.234Z,35.05
2022-08-17T00:49:38.636Z,34.67
2022-08-17T00:52:12.508Z,38.88
2022-08-17T00:54:42.403Z,36.58
2022-08-17T00:57:15.251Z,38.40
2022-08-17T00:59:46.478Z,35.80
2022-08-17T01:02:30.071Z,34.72
2022-08-17T01:05:01.330Z,38.38
2022-08-17T01:07:27.913Z,36.40
2022-08-17T01:09:54.719Z,36.92
2022-08-17T01:12:21.133Z,36.17
2022-08-17T01:14:47.522Z,37.10
2022-08-17T01:17:13.893Z,40.22
2022-08-17T01:19:42.324Z,43.90
2022-08-17T01:22:11.623Z,44.35
2022-08-17T01:24:49.743Z,38.92
2022-08-17T01:27:18.462Z,41.33
2022-08-17T01:29:51.556Z,40.63
2022-08-17T01:32:18.164Z,40.85
2022-08-17T01:34:50.534Z,36.58
2022-08-17T01:37:19.955Z,33.80
2022-08-17T01:39:53.752Z,45.28
2022-08-17T01:42:22.953Z,35.35
2022-08-17T01:44:54.847Z,32.42
2022-08-17T01:47:21.285Z,38.25
2022-08-17T01:49:48.018Z,37.78
2022-08-17T01:52:15.313Z,35.20
2022-08-17T01:54:45.482Z,36.72
2022-08-17T01:57:11.881Z,39.88
2022-08-17T01:59:38.345Z,40.13
2022-08-17T02:02:06.001Z,39.80
2022-08-17T02:04:32.554Z,39.38
2022-08-17T02:06:58.982Z,41.10
2022-08-17T02:09:29.949Z,39.67
2022-08-17T02:11:59.787Z,40.05
2022-08-17T02:14:46.136Z,42.17
2022-08-17T02:17:12.544Z,42.97
2022-08-17T02:19:40.042Z,41.17
2022-08-17T02:22:06.476Z,47.60
2022-08-17T02:24:59.778Z,40.33
2022-08-17T02:27:22.096Z,39.10
2022-08-17T02:29:48.461Z,39.90
2022-08-17T02:32:20.921Z,41.08
2022-08-17T02:34:54.403Z,46.17
2022-08-17T02:37:20.839Z,44.65
2022-08-17T02:39:47.348Z,44.95
2022-08-17T02:42:14.769Z,40.47
2022-08-17T02:44:41.601Z,40.63
2022-08-17T02:47:09.487Z,41.45
2022-08-17T02:49:36.554Z,40.63
2022-08-17T02:52:05.484Z,43.83
2022-08-17T02:54:41.170Z,43.25
2022-08-17T02:57:09.454Z,47.33
2022-08-17T02:59:35.812Z,40.78
2022-08-17T03:02:11.395Z,42.30
2022-08-17T03:04:38.503Z,41.70
2022-08-17T03:07:05.064Z,41.88
2022-08-17T03:09:31.836Z,41.67
2022-08-17T03:12:10.049Z,42.88
2022-08-17T03:14:41.509Z,44.65
2022-08-17T03:19:35.086Z,42.28
2022-08-17T03:22:36.229Z,43.40
2022-08-17T03:24:55.002Z,44.92
2022-08-17T03:27:22.597Z,41.40
2022-08-17T03:29:48.929Z,43.28
2022-08-17T03:32:16.641Z,43.03
2022-08-17T03:34:43.260Z,41.97
2022-08-17T03:37:09.605Z,47.05
2022-08-17T03:39:36.008Z,43.70
2022-08-17T03:42:32.527Z,44.60
2022-08-17T03:45:00.272Z,43.25
2022-08-17T03:47:27.513Z,42.42
2022-08-17T03:49:53.871Z,44.70
2022-08-17T03:52:20.197Z,45.33
2022-08-17T03:54:46.592Z,46.08
2022-08-17T03:57:13.441Z,48.03
2022-08-17T03:59:40.885Z,47.70
2022-08-17T04:02:11.210Z,46.67
2022-08-17T04:04:38.585Z,47.67
2022-08-17T04:07:05.114Z,46.15
2022-08-17T04:09:31.677Z,41.58
2022-08-17T04:12:02.379Z,47.10
2022-08-17T04:14:31.998Z,47.10
2022-08-17T04:16:58.322Z,47.35
2022-08-17T04:19:24.670Z,49.53
2022-08-17T04:21:51.056Z,50.78
2022-08-17T04:24:17.398Z,44.53
2022-08-17T04:26:54.241Z,46.55
2022-08-17T04:29:21.109Z,43.53
2022-08-17T04:31:47.446Z,50.67
2022-08-17T04:34:13.798Z,48.58
2022-08-17T04:36:40.141Z,52.33
2022-08-17T04:39:16.505Z,50.17
2022-08-17T04:41:43.294Z,47.70
2022-08-17T04:44:09.790Z,54.40
2022-08-17T04:46:36.510Z,50.45
2022-08-17T04:49:06.582Z,54.63
2022-08-17T04:51:40.084Z,54.53
2022-08-17T04:54:20.346Z,54.10
2022-08-17T04:56:46.845Z,50.08
2022-08-17T04:59:15.993Z,57.28
2022-08-17T05:01:43.927Z,55.97
2022-08-17T05:04:20.840Z,50.97
2022-08-17T05:06:59.137Z,54.78
2022-08-17T05:09:26.742Z,54.38
2022-08-17T05:11:53.088Z,55.10
2022-08-17T05:14:21.760Z,52.22
2022-08-17T05:16:59.582Z,51.63
2022-08-17T05:19:27.322Z,52.15
2022-08-17T05:21:53.659Z,51.83
2022-08-17T05:24:38.460Z,52.53
2022-08-17T05:27:06.833Z,50.17
2022-08-17T05:29:35.399Z,49.95
2022-08-17T05:32:39.173Z,53.90
2022-08-17T05:34:59.104Z,49.22
2022-08-17T05:37:25.489Z,50.33
2022-08-17T05:39:53.753Z,45.45
2022-08-17T05:42:20.253Z,41.38
2022-08-17T05:44:46.612Z,39.45
2022-08-17T05:47:12.970Z,39.92
2022-08-17T05:49:39.567Z,38.25
2022-08-17T05:52:22.733Z,38.90
2022-08-17T05:55:18.961Z,38.72
2022-08-17T05:58:15.839Z,35.10
2022-08-17T06:00:56.095Z,35.60
2022-08-17T06:03:34.779Z,38.22
2022-08-17T06:06:17.054Z,38.03
2022-08-17T06:08:46.244Z,37.22
2022-08-17T06:11:31.305Z,42.55
2022-08-17T06:14:19.083Z,40.50
2022-08-17T06:16:50.629Z,40.40
2022-08-17T06:19:38.759Z,41.30
2022-08-17T06:22:07.726Z,41.15
2022-08-17T06:24:53.676Z,39.50
2022-08-17T06:27:37.036Z,37.22
2022-08-17T06:30:59.238Z,38.78
2022-08-17T06:33:32.617Z,35.72
2022-08-17T06:36:36.864Z,37.28
2022-08-17T06:39:28.354Z,34.58
2022-08-17T06:43:02.293Z,32.83
2022-08-17T06:45:16.118Z,31.40
2022-08-17T06:47:52.483Z,31.90
2022-08-17T06:50:29.439Z,32.95
2022-08-17T06:53:20.820Z,31.55
2022-08-17T06:56:01.530Z,31.67
2022-08-17T06:58:29.932Z,29.27
2022-08-17T07:00:58.823Z,28.35
2022-08-17T07:03:34.040Z,29.92
2022-08-17T07:06:11.327Z,30.77
2022-08-17T07:09:01.478Z,30.63
2022-08-17T07:11:48.064Z,29.50
2022-08-17T07:14:26.714Z,28.00
2022-08-17T07:16:55.545Z,26.35
2022-08-17T07:19:26.571Z,26.20
2022-08-17T07:21:55.717Z,30.05
2022-08-17T07:24:33.330Z,28.35
2022-08-17T07:27:22.895Z,27.90
2022-08-17T07:29:57.678Z,26.50
2022-08-17T07:32:29.192Z,25.67
2022-08-17T07:35:44.338Z,24.05
2022-08-17T07:38:28.783Z,24.67
2022-08-17T07:40:55.108Z,21.45
2022-08-17T07:43:35.190Z,22.33
2022-08-17T07:46:10.854Z,22.42
2022-08-17T07:48:39.877Z,22.73
2022-08-17T07:51:16.752Z,21.77
2022-08-17T07:53:43.233Z,22.52
2022-08-17T07:56:09.694Z,21.13
2022-08-17T07:58:36.037Z,23.45
2022-08-17T08:01:11.921Z,21.52
2022-08-17T08:03:43.019Z,22.95
2022-08-17T08:06:25.405Z,24.60
2022-08-17T08:08:55.684Z,23.08
2022-08-17T08:11:32.501Z,24.27
2022-08-17T08:14:37.524Z,22.40
2022-08-17T08:17:09.233Z,22.75
2022-08-17T08:19:35.963Z,24.05
2022-08-17T08:22:12.609Z,21.98
2022-08-17T08:25:07.714Z,23.75
2022-08-17T08:27:45.949Z,23.58
2022-08-17T08:30:16.666Z,24.30
2022-08-17T08:33:02.249Z,23.42
2022-08-17T08:35:53.430Z,22.15
2022-08-17T08:38:59.211Z,25.27
2022-08-17T08:41:44.336Z,24.95
2022-08-17T08:45:00.953Z,23.25
2022-08-17T08:47:41.139Z,24.58
2022-08-17T08:50:38.265Z,23.48
2022-08-17T08:53:13.966Z,23.40
2022-08-17T08:56:02.777Z,24.98
2022-08-17T08:58:50.300Z,26.17
2022-08-17T09:01:27.699Z,24.00
2022-08-17T09:04:25.194Z,24.15
2022-08-17T09:07:03.925Z,23.38
2022-08-17T09:09:42.465Z,26.25
2022-08-17T09:12:21.132Z,24.73
2022-08-17T09:15:01.431Z,24.98
2022-08-17T09:17:45.437Z,25.27
2022-08-17T09:20:27.202Z,26.33
2022-08-17T09:23:25.760Z,24.77
2022-08-17T09:26:07.888Z,26.10
2022-08-17T09:28:37.217Z,23.67
2022-08-17T09:31:09.485Z,23.67
2022-08-17T09:33:43.644Z,22.90
2022-08-17T09:36:25.835Z,25.67
2022-08-17T09:39:36.350Z,25.38
2022-08-17T09:42:11.727Z,21.40
2022-08-17T09:44:51.617Z,22.77
2022-08-17T09:47:36.569Z,22.58
2022-08-17T09:50:10.909Z,24.13
2022-08-17T09:52:37.534Z,23.25
2022-08-17T09:55:05.237Z,24.58
2022-08-17T09:58:05.837Z,23.95
2022-08-17T10:00:37.017Z,28.75
2022-08-17T10:03:30.369Z,24.90
2022-08-17T10:06:06.622Z,25.05
2022-08-17T10:08:42.034Z,25.27
2022-08-17T10:11:33.875Z,22.83
2022-08-17T10:14:37.359Z,27.98
2022-08-17T10:17:17.476Z,27.73
2022-08-17T10:19:57.221Z,26.58
2022-08-17T10:22:37.725Z,25.58
2022-08-17T10:25:22.581Z,26.25
2022-08-17T10:27:59.916Z,27.45
2022-08-17T10:30:31.439Z,27.50
2022-08-17T10:36:00.480Z,26.75
2022-08-17T10:38:46.105Z,27.33
2022-08-17T10:41:23.000Z,27.52
2022-08-17T10:44:40.392Z,28.92
2022-08-17T10:47:14.491Z,30.20
2022-08-17T10:49:43.781Z,29.02
2022-08-17T10:52:30.360Z,29.90
2022-08-17T10:54:58.788Z,29.77
2022-08-17T10:57:31.521Z,32.30
2022-08-17T10:59:59.879Z,31.00
2022-08-17T11:02:39.353Z,28.35
2022-08-17T11:05:08.930Z,30.70
2022-08-17T11:07:35.211Z,28.63
2022-08-17T11:10:01.559Z,32.38
2022-08-17T11:13:03.271Z,28.85
2022-08-17T11:16:08.490Z,29.88
2022-08-17T11:18:46.352Z,31.63
2022-08-17T11:21:24.467Z,28.75
2022-08-17T11:24:17.285Z,28.85
2022-08-17T11:26:58.949Z,28.35
2022-08-17T11:29:35.822Z,27.55
2022-08-17T11:32:10.465Z,27.52
2022-08-17T11:34:39.538Z,27.67
2022-08-17T11:37:33.721Z,29.77
2022-08-17T11:40:20.372Z,29.52
2022-08-17T11:43:17.300Z,27.25
2022-08-17T11:46:01.278Z,26.90
2022-08-17T11:48:30.658Z,31.38
2022-08-17T11:51:12.123Z,27.45
2022-08-17T11:53:38.422Z,25.65
2022-08-17T11:56:09.291Z,27.42
2022-08-17T11:58:42.222Z,27.50
2022-08-17T12:01:10.108Z,30.88
2022-08-17T12:03:39.963Z,28.08
2022-08-17T12:06:18.057Z,29.92
2022-08-17T12:08:51.490Z,27.20
2022-08-17T12:11:57.796Z,27.52
2022-08-17T12:15:05.814Z,25.73
2022-08-17T12:17:40.576Z,26.33
2022-08-17T12:20:20.517Z,27.75
2022-08-17T12:23:03.611Z,29.58
2022-08-17T12:25:47.438Z,28.05
2022-08-17T12:28:28.963Z,27.25
2022-08-17T12:31:02.029Z,27.70
2022-08-17T12:33:29.151Z,29.35
2022-08-17T12:36:02.427Z,34.03
2022-08-17T12:38:33.266Z,35.30
2022-08-17T12:41:01.478Z,31.98
2022-08-17T12:43:28.359Z,36.35
2022-08-17T12:45:57.873Z,31.52
2022-08-17T12:48:26.529Z,35.05
2022-08-17T12:51:00.627Z,36.28
2022-08-17T12:53:29.821Z,33.35
2022-08-17T12:55:58.794Z,37.72
2022-08-17T12:58:31.311Z,34.40
2022-08-17T13:01:05.305Z,35.85
2022-08-17T13:03:40.898Z,35.13
2022-08-17T13:06:10.858Z,34.72
2022-08-17T13:08:43.823Z,35.72
2022-08-17T13:11:19.630Z,35.50
2022-08-17T13:13:48.965Z,36.95
2022-08-17T13:16:20.216Z,39.53
2022-08-17T13:18:52.049Z,35.42
2022-08-17T13:21:18.325Z,38.00
2022-08-17T13:24:02.112Z,39.33
2022-08-17T13:26:38.473Z,39.10
2022-08-17T13:29:07.009Z,39.67
2022-08-17T13:31:50.426Z,39.58
2022-08-17T13:34:26.700Z,40.35
2022-08-17T13:37:23.876Z,40.90
2022-08-17T13:39:50.322Z,44.25
2022-08-17T13:42:48.115Z,46.97
2022-08-17T13:45:35.209Z,46.22
2022-08-17T13:48:14.108Z,47.17
2022-08-17T13:50:58.877Z,47.40
2022-08-17T13:53:32.879Z,42.40
2022-08-17T13:56:37.746Z,51.08
2022-08-17T13:59:52.748Z,43.15
2022-08-17T14:02:10.318Z,44.15
2022-08-17T14:04:40.605Z,49.08
2022-08-17T14:07:09.748Z,47.15
2022-08-17T14:09:40.949Z,47.15
2022-08-17T14:12:12.695Z,51.22
2022-08-17T14:14:39.612Z,46.13
2022-08-17T14:17:06.006Z,51.20
2022-08-17T14:19:34.624Z,49.20
2022-08-17T14:22:01.704Z,53.08
2022-08-17T14:24:30.816Z,46.85
2022-08-17T14:26:59.403Z,51.95
2022-08-17T14:29:28.401Z,50.78
2022-08-17T14:31:55.963Z,53.25
2022-08-17T14:34:23.914Z,50.95
2022-08-17T14:36:51.617Z,52.15
2022-08-17T14:39:19.089Z,49.08
2022-08-17T14:41:45.689Z,50.28
2022-08-17T14:44:12.666Z,52.50
2022-08-17T14:46:40.649Z,55.97
2022-08-17T14:49:12.287Z,57.05
2022-08-17T14:54:32.610Z,59.15
2022-08-17T14:57:22.649Z,57.30
2022-08-17T14:59:45.033Z,54.55
2022-08-17T15:02:12.024Z,60.47
2022-08-17T15:04:43.419Z,59.88
2022-08-17T15:07:11.841Z,58.72
2022-08-17T15:09:38.215Z,51.53
2022-08-17T15:12:04.920Z,49.75
2022-08-17T15:14:31.272Z,52.35
2022-08-17T15:16:57.641Z,50.25
2022-08-17T15:19:23.959Z,47.58
2022-08-17T15:21:50.325Z,52.45
2022-08-17T15:24:16.743Z,48.92
2022-08-17T15:26:43.145Z,50.72
2022-08-17T15:29:09.682Z,56.38
2022-08-17T15:31:36.657Z,49.00
2022-08-17T15:34:03.497Z,50.35
2022-08-17T15:36:34.236Z,54.03
2022-08-17T15:39:00.573Z,54.63
2022-08-17T15:41:27.476Z,52.78
2022-08-17T15:43:54.440Z,47.10
2022-08-17T15:46:23.834Z,52.80
2022-08-17T15:48:53.056Z,49.83
2022-08-17T15:51:33.738Z,51.50
2022-08-17T15:54:04.417Z,54.08
2022-08-17T15:56:45.852Z,50.78
2022-08-17T15:59:12.201Z,47.75
2022-08-17T16:03:01.129Z,50.88
2022-08-17T16:04:30.337Z,47.65
2022-08-17T16:06:58.083Z,48.85
2022-08-17T16:09:24.425Z,49.90
2022-08-17T16:11:55.026Z,49.40
2022-08-17T16:14:21.936Z,51.03
2022-08-17T16:16:49.519Z,51.05
2022-08-17T16:19:15.892Z,49.47
2022-08-17T16:21:42.949Z,52.10
2022-08-17T16:24:13.160Z,49.83
2022-08-17T16:26:41.701Z,49.85
2022-08-17T16:29:08.865Z,49.67
2022-08-17T16:31:36.304Z,53.15
2022-08-17T16:34:17.482Z,54.95
2022-08-17T16:36:55.540Z,52.90
2022-08-17T16:41:50.419Z,49.78
2022-08-17T16:44:20.077Z,48.35
2022-08-17T16:46:47.941Z,46.67
2022-08-17T16:49:26.778Z,45.28
2022-08-17T16:52:01.851Z,43.72
2022-08-17T16:54:28.236Z,42.30
2022-08-17T16:56:55.191Z,44.55
2022-08-17T16:59:30.815Z,44.30
2022-08-17T17:02:05.966Z,43.22
2022-08-17T17:04:35.128Z,41.88
2022-08-17T17:07:17.646Z,42.70
2022-08-17T17:09:44.865Z,39.17
2022-08-17T17:12:18.452Z,36.97
2022-08-17T17:14:48.218Z,38.63
2022-08-17T17:17:31.975Z,36.95
2022-08-17T17:20:13.395Z,38.42
2022-08-17T17:23:01.849Z,34.25
2022-08-17T17:25:38.299Z,34.65
2022-08-17T17:28:32.009Z,34.33
2022-08-17T17:31:05.494Z,35.63
2022-08-17T17:33:39.976Z,34.10
2022-08-17T17:36:38.024Z,37.22
2022-08-17T17:39:10.165Z,36.75
2022-08-17T17:41:54.631Z,40.50
2022-08-17T17:44:32.225Z,36.65
2022-08-17T17:47:01.264Z,35.88
2022-08-17T17:49:32.757Z,39.20
2022-08-17T17:52:12.297Z,39.42
2022-08-17T17:55:03.980Z,43.15
2022-08-17T17:57:46.392Z,39.95
2022-08-17T18:00:21.074Z,36.25
2022-08-17T18:03:09.615Z,41.70
2022-08-17T18:05:48.069Z,40.75
2022-08-17T18:08:34.262Z,41.65
2022-08-17T18:11:24.112Z,44.15
2022-08-17T18:14:21.822Z,43.42
2022-08-17T18:16:55.207Z,38.10
2022-08-17T18:19:23.064Z,37.65
2022-08-17T18:21:54.486Z,39.63
2022-08-17T18:24:35.780Z,43.45
2022-08-17T18:27:18.341Z,37.95
2022-08-17T18:29:46.935Z,46.42
2022-08-17T18:32:20.453Z,46.00
2022-08-17T18:34:53.149Z,40.25
2022-08-17T18:37:48.520Z,42.00
2022-08-17T18:40:18.035Z,41.97
2022-08-17T18:42:54.905Z,43.22
2022-08-17T18:45:38.387Z,40.55
2022-08-17T18:48:16.813Z,40.92
2022-08-17T18:50:43.257Z,38.30
2022-08-17T18:53:26.492Z,39.28
2022-08-17T18:56:27.945Z,37.22
2022-08-17T18:59:09.890Z,35.75
2022-08-17T19:01:53.533Z,43.97
2022-08-17T19:04:41.901Z,41.83
2022-08-17T19:07:17.081Z,39.55
2022-08-17T19:09:48.458Z,39.72
2022-08-17T19:12:27.200Z,42.28
2022-08-17T19:14:56.289Z,42.83
2022-08-17T19:17:29.757Z,47.53
2022-08-17T19:20:03.039Z,43.00
2022-08-17T19:22:45.383Z,41.15
2022-08-17T19:25:17.187Z,42.63
2022-08-17T19:30:24.084Z,41.92
2022-08-17T19:32:50.592Z,43.45
2022-08-17T19:35:19.407Z,47.30
2022-08-17T19:38:22.121Z,44.28
2022-08-17T19:41:00.540Z,50.05
2022-08-17T19:43:51.337Z,46.50
2022-08-17T19:46:35.647Z,46.03
2022-08-17T19:49:32.875Z,49.47
2022-08-17T19:52:24.403Z,55.25
2022-08-17T19:55:02.247Z,46.88
2022-08-17T19:57:56.402Z,49.17
2022-08-17T20:00:23.081Z,41.67
2022-08-17T20:03:22.562Z,42.00
2022-08-17T20:06:12.628Z,45.22
2022-08-17T20:09:04.221Z,56.63
2022-08-17T20:11:49.217Z,56.03
2022-08-17T20:14:35.137Z,46.00
2022-08-17T20:17:03.040Z,48.40
2022-08-17T20:19:40.945Z,48.72
2022-08-17T20:22:20.129Z,57.55
2022-08-17T20:25:06.804Z,58.05
2022-08-17T20:27:47.190Z,58.97
2022-08-17T20:30:25.024Z,54.35
2022-08-17T20:32:55.859Z,54.92
2022-08-17T20:35:28.331Z,53.22
2022-08-17T20:37:59.663Z,55.13
2022-08-17T20:40:39.432Z,51.20
2022-08-17T20:44:03.445Z,45.63
2022-08-17T20:46:41.300Z,48.45
2022-08-17T20:49:10.658Z,52.83
2022-08-17T20:52:07.577Z,54.45
2022-08-17T20:54:47.944Z,49.47
2022-08-17T20:57:32.475Z,42.35
2022-08-17T21:00:06.698Z,40.15
2022-08-17T21:02:33.265Z,41.25
2022-08-17T21:05:04.162Z,40.00
2022-08-17T21:07:42.571Z,41.60
2022-08-17T21:10:25.383Z,41.45
2022-08-17T21:12:51.685Z,40.00
2022-08-17T21:15:34.221Z,40.03
2022-08-17T21:18:14.100Z,39.55
2022-08-17T21:20:49.269Z,37.22
2022-08-17T21:23:31.267Z,41.00
2022-08-17T21:25:57.557Z,36.00
2022-08-17T21:29:00.013Z,41.55
2022-08-17T21:31:38.156Z,38.42
2022-08-17T21:36:50.364Z,38.95
2022-08-17T21:39:23.274Z,40.10
2022-08-17T21:41:56.973Z,38.25
2022-08-17T21:44:36.765Z,37.60
2022-08-17T21:47:38.816Z,39.67
2022-08-17T21:50:24.673Z,44.97
2022-08-17T21:52:54.662Z,37.10
2022-08-17T21:55:32.489Z,38.55
2022-08-17T22:00:42.286Z,40.65
2022-08-17T22:03:23.385Z,38.65
2022-08-17T22:05:49.749Z,38.05
2022-08-17T22:08:22.296Z,36.28
2022-08-17T22:10:49.380Z,36.97
2022-08-17T22:13:24.377Z,36.95
2022-08-17T22:16:15.737Z,31.02
2022-08-17T22:18:54.779Z,31.10
2022-08-17T22:21:22.527Z,33.72
2022-08-17T22:24:14.973Z,33.88
2022-08-17T22:27:00.667Z,28.95
2022-08-17T22:29:46.628Z,30.42
2022-08-17T22:32:40.237Z,29.33
2022-08-17T22:35:30.749Z,29.92
2022-08-17T22:38:17.578Z,30.98
2022-08-17T22:40:46.828Z,30.02
2022-08-17T22:43:13.446Z,29.55
2022-08-17T22:45:44.616Z,28.80
2022-08-17T22:48:11.317Z,28.63
2022-08-17T22:50:37.692Z,28.52
2022-08-17T22:53:15.291Z,27.80
2022-08-17T22:55:53.739Z,27.92
2022-08-17T22:58:23.890Z,27.75
2022-08-17T23:00:50.290Z,32.13
2022-08-17T23:03:21.195Z,28.05
2022-08-17T23:06:09.247Z,28.52
2022-08-17T23:08:37.415Z,29.67
2022-08-17T23:11:05.836Z,30.50
2022-08-17T23:13:32.291Z,34.40
2022-08-17T23:15:59.002Z,32.25
2022-08-17T23:18:25.392Z,33.25
2022-08-17T23:20:51.750Z,29.70
2022-08-17T23:23:23.045Z,30.58
2022-08-17T23:25:50.051Z,31.70
2022-08-17T23:28:16.378Z,27.63
2022-08-17T23:30:44.335Z,28.27
2022-08-17T23:33:36.199Z,27.23
2022-08-17T23:36:02.644Z,25.67
2022-08-17T23:38:29.015Z,27.80
2022-08-17T23:40:58.500Z,28.77
2022-08-17T23:43:27.580Z,26.92
2022-08-17T23:45:56.329Z,31.17
2022-08-17T23:48:32.516Z,34.67
2022-08-17T23:51:04.439Z,31.50
2022-08-17T23:53:34.346Z,30.65
2022-08-17T23:56:03.754Z,27.65
2022-08-17T23:58:37.513Z,26.13
